createdAt,value
2022-08-19T00:00:00.201Z,89.6
2022-08-19T00:05:00.292Z,89.9
2022-08-19T00:10:00.176Z,89.9
2022-08-19T00:15:00.186Z,90.2
2022-08-19T00:20:00.198Z,90.2
2022-08-19T00:25:00.165Z,89.9
2022-08-19T00:30:00.180Z,89.9
2022-08-19T00:35:00.194Z,89.9
2022-08-19T00:40:00.334Z,89.9
2022-08-19T00:45:00.169Z,89.6
2022-08-19T00:50:00.195Z,89
2022-08-19T00:55:00.170Z,89.3
2022-08-19T01:00:02.530Z,88.6
2022-08-19T01:05:00.167Z,88.3
2022-08-19T01:10:00.168Z,88
2022-08-19T01:15:00.163Z,88
2022-08-19T01:20:00.183Z,87.4
2022-08-19T01:25:00.190Z,88
2022-08-19T01:30:00.186Z,87.4
2022-08-19T01:35:00.161Z,87.4
2022-08-19T01:40:00.258Z,87.4
2022-08-19T01:45:00.175Z,87.4
2022-08-19T01:50:00.224Z,87.4
2022-08-19T01:55:00.188Z,87.7
2022-08-19T02:00:00.181Z,88
2022-08-19T02:05:00.381Z,88
2022-08-19T02:10:00.215Z,87.4
2022-08-19T02:15:00.186Z,87.4
2022-08-19T02:20:00.185Z,88
2022-08-19T02:25:00.193Z,87.7
2022-08-19T02:30:00.182Z,87.3
2022-08-19T02:35:00.170Z,87
2022-08-19T02:40:00.290Z,87.3
2022-08-19T02:45:00.177Z,88
2022-08-19T02:50:00.390Z,87.7
2022-08-19T02:55:00.416Z,87.4
2022-08-19T03:00:00.352Z,88
2022-08-19T03:05:00.189Z,88
2022-08-19T03:10:00.255Z,88
2022-08-19T03:15:00.184Z,88.6
2022-08-19T03:20:00.203Z,88.6
2022-08-19T03:25:00.190Z,87.9
2022-08-19T03:30:00.177Z,87.9
2022-08-19T03:35:00.179Z,88
2022-08-19T03:40:00.422Z,87.6
2022-08-19T03:45:00.164Z,87.6
2022-08-19T03:50:00.196Z,88.6
2022-08-19T03:55:00.166Z,87.9
2022-08-19T04:00:12.718Z,87.6
2022-08-19T04:05:00.163Z,88.6
2022-08-19T04:10:00.178Z,88.9
2022-08-19T04:15:00.172Z,89.5
2022-08-19T04:20:00.175Z,89.8
2022-08-19T04:25:00.175Z,89.5
2022-08-19T04:30:00.177Z,89.8
2022-08-19T04:35:02.275Z,90.2
2022-08-19T04:40:02.246Z,90.5
2022-08-19T04:45:00.235Z,90.4
2022-08-19T04:50:00.167Z,90.8
2022-08-19T04:55:00.166Z,90.5
2022-08-19T05:00:00.219Z,90.5
2022-08-19T05:05:00.167Z,90.8
2022-08-19T05:10:00.184Z,91.1
2022-08-19T05:15:00.173Z,91.1
2022-08-19T05:20:00.200Z,91.4
2022-08-19T05:25:12.115Z,91.1
2022-08-19T05:30:00.186Z,91.1
2022-08-19T05:35:00.206Z,91.1
2022-08-19T05:40:00.353Z,91.1
2022-08-19T05:45:00.185Z,90.5
2022-08-19T05:50:00.227Z,90.8
2022-08-19T05:55:00.188Z,90.8
2022-08-19T06:00:00.167Z,91.2
2022-08-19T06:05:00.176Z,91.1
2022-08-19T06:10:01.442Z,91.1
2022-08-19T06:15:01.358Z,91.1
2022-08-19T06:20:00.477Z,91.1
2022-08-19T06:25:00.186Z,91.2
2022-08-19T06:30:00.177Z,90.8
2022-08-19T06:35:00.167Z,90.8
2022-08-19T06:40:00.337Z,90.9
2022-08-19T06:45:00.180Z,90.5
2022-08-19T06:50:02.767Z,90.5
2022-08-19T06:55:00.193Z,90.5
2022-08-19T07:00:00.193Z,90.6
2022-08-19T07:05:00.312Z,90.6
2022-08-19T07:10:02.723Z,89.9
2022-08-19T07:15:00.177Z,89.9
2022-08-19T07:20:06.726Z,89.6
2022-08-19T07:25:00.166Z,89.3
2022-08-19T07:30:00.185Z,89.3
2022-08-19T07:35:00.181Z,89.3
2022-08-19T07:45:00.239Z,88.7
2022-08-19T07:50:00.196Z,88
2022-08-19T07:55:00.189Z,88.1
2022-08-19T08:00:00.341Z,88.1
2022-08-19T08:05:00.202Z,87.7
2022-08-19T08:10:00.571Z,87.7
2022-08-19T08:15:00.179Z,88.1
2022-08-19T08:20:00.193Z,88.1
2022-08-19T08:25:00.183Z,87.8
2022-08-19T08:30:00.193Z,87.4
2022-08-19T08:35:00.188Z,87.1
2022-08-19T08:40:00.335Z,86.8
2022-08-19T08:45:00.367Z,86.8
2022-08-19T08:50:00.206Z,87.4
2022-08-19T08:55:00.200Z,86.8
2022-08-19T09:00:00.219Z,87.5
2022-08-19T09:05:00.182Z,87.4
2022-08-19T09:10:00.202Z,87.4
2022-08-19T09:15:00.189Z,87.4
2022-08-19T09:20:00.218Z,88.1
2022-08-19T09:25:00.211Z,88.1
2022-08-19T09:30:00.209Z,88
2022-08-19T09:35:00.181Z,88.1
2022-08-19T09:40:00.325Z,88.4
2022-08-19T09:45:00.437Z,88.1
2022-08-19T09:50:00.218Z,88.1
2022-08-19T09:55:00.506Z,88.4
2022-08-19T10:00:00.210Z,87.7
2022-08-19T10:05:00.246Z,88.1
2022-08-19T10:10:00.305Z,88.4
2022-08-19T10:15:00.321Z,88.7
2022-08-19T10:20:00.322Z,88.7
2022-08-19T10:25:00.297Z,88.7
2022-08-19T10:30:00.188Z,88.7
2022-08-19T10:35:00.201Z,88.7
2022-08-19T10:40:00.366Z,89
2022-08-19T10:45:00.211Z,89.3
2022-08-19T10:50:00.191Z,89.3
2022-08-19T10:55:00.209Z,89.3
2022-08-19T11:00:00.185Z,89.6
2022-08-19T11:05:04.495Z,89.9
2022-08-19T11:10:00.209Z,90.5
2022-08-19T11:15:00.231Z,91.1
2022-08-19T11:20:00.358Z,91.1
2022-08-19T11:25:00.217Z,91.5
2022-08-19T11:30:00.190Z,91.8
2022-08-19T11:35:00.206Z,91.8
2022-08-19T11:40:00.315Z,91.8
2022-08-19T11:45:00.191Z,91.8
2022-08-19T11:50:00.186Z,91.8
2022-08-19T11:55:00.183Z,91.5
2022-08-19T12:00:00.208Z,91.2
2022-08-19T12:05:00.189Z,91.2
2022-08-19T12:10:00.186Z,91.2
2022-08-19T12:15:00.196Z,91.2
2022-08-19T12:20:00.209Z,90.9
2022-08-19T12:25:00.192Z,90.6
2022-08-19T12:30:00.195Z,90.6
2022-08-19T12:35:00.188Z,90.6
2022-08-19T12:40:00.456Z,89.4
2022-08-19T12:45:00.194Z,89.4
2022-08-19T12:50:00.211Z,88.8
2022-08-19T12:55:00.182Z,88.8
2022-08-19T13:00:00.219Z,88.2
2022-08-19T13:05:00.180Z,88.2
2022-08-19T13:10:00.202Z,87.6
2022-08-19T13:15:00.181Z,87.6
2022-08-19T13:20:00.210Z,87.5
2022-08-19T13:25:00.192Z,87.2
2022-08-19T13:30:00.219Z,87.5
2022-08-19T13:35:00.202Z,87.8
2022-08-19T13:40:00.327Z,87.8
2022-08-19T13:45:00.233Z,88.1
2022-08-19T13:50:00.186Z,88.1
2022-08-19T13:55:00.206Z,88.4
2022-08-19T14:00:00.244Z,88.4
2022-08-19T14:05:00.206Z,88.1
2022-08-19T14:10:00.258Z,88.1
2022-08-19T14:15:00.325Z,88.1
2022-08-19T14:20:00.335Z,87.8
2022-08-19T14:25:00.204Z,88.1
2022-08-19T14:30:00.210Z,88.8
2022-08-19T14:35:00.344Z,88.8
2022-08-19T14:40:00.510Z,89.4
2022-08-19T14:45:00.456Z,89.4
2022-08-19T14:50:00.403Z,89.4
2022-08-19T14:55:00.238Z,90
2022-08-19T15:00:00.252Z,89.7
2022-08-19T15:05:00.193Z,90.7
2022-08-19T15:10:00.359Z,90.6
2022-08-19T15:15:00.282Z,90.6
2022-08-19T15:20:00.379Z,91
2022-08-19T15:25:00.181Z,90.9
2022-08-19T15:30:01.631Z,91
2022-08-19T15:35:00.196Z,90.6
2022-08-19T15:40:00.364Z,91
2022-08-19T15:45:01.571Z,91
2022-08-19T15:50:00.754Z,90.6
2022-08-19T15:55:00.195Z,90.7
2022-08-19T16:00:02.909Z,90.7
2022-08-19T16:05:00.187Z,91.3
2022-08-19T16:10:00.198Z,91.6
2022-08-19T16:15:00.185Z,91.6
2022-08-19T16:20:00.192Z,91.9
2022-08-19T16:25:00.189Z,91.9
2022-08-19T16:30:00.186Z,91.6
2022-08-19T16:35:04.499Z,91.6
2022-08-19T16:40:00.335Z,91.6
2022-08-19T16:45:00.207Z,91.3
2022-08-19T16:50:00.185Z,91.3
2022-08-19T16:55:00.195Z,91.3
2022-08-19T17:00:00.212Z,91.3
2022-08-19T17:05:00.206Z,91.3
2022-08-19T17:10:00.217Z,91.3
2022-08-19T17:15:00.199Z,91.3
2022-08-19T17:20:00.200Z,91.6
2022-08-19T17:25:00.186Z,91.9
2022-08-19T17:30:00.205Z,91.9
2022-08-19T17:35:00.202Z,91.9
2022-08-19T17:40:00.342Z,92.2
2022-08-19T17:45:00.182Z,92.2
2022-08-19T17:50:00.189Z,92.2
2022-08-19T17:55:00.198Z,92.5
2022-08-19T18:00:00.227Z,92.5
2022-08-19T18:05:00.191Z,92.2
2022-08-19T18:10:02.006Z,92.5
2022-08-19T18:15:00.196Z,92.5
2022-08-19T18:20:00.205Z,92.5
2022-08-19T18:25:00.183Z,92.2
2022-08-19T18:30:00.346Z,92.2
2022-08-19T18:35:00.192Z,92.2
2022-08-19T18:40:00.302Z,92.2
2022-08-19T18:45:00.425Z,92.5
2022-08-19T18:50:00.185Z,92.4
2022-08-19T18:55:00.218Z,92.7
2022-08-19T19:00:00.194Z,92.8
2022-08-19T19:05:03.884Z,93.1
2022-08-19T19:10:00.183Z,92.8
2022-08-19T19:15:00.182Z,92.7
2022-08-19T19:20:00.915Z,93
2022-08-19T19:25:00.191Z,92.7
2022-08-19T19:30:00.193Z,92.4
2022-08-19T19:35:00.856Z,92.7
2022-08-19T19:40:00.289Z,92.4
2022-08-19T19:45:00.179Z,92.4
2022-08-19T19:55:00.186Z,92.4
2022-08-19T20:00:00.205Z,92.4
2022-08-19T20:05:00.181Z,92.4
2022-08-19T20:10:00.437Z,92.7
2022-08-19T20:15:00.238Z,92.7
2022-08-19T20:20:00.259Z,92.4
2022-08-19T20:25:00.314Z,92.4
2022-08-19T20:30:00.336Z,92.1
2022-08-19T20:35:00.222Z,91.7
2022-08-19T20:40:00.410Z,92.4
2022-08-19T20:45:00.242Z,92.1
2022-08-19T20:50:00.194Z,92.4
2022-08-19T20:55:00.201Z,92.1
2022-08-19T21:00:00.200Z,91.7
2022-08-19T21:05:00.218Z,92.1
2022-08-19T21:10:00.212Z,92.4
2022-08-19T21:15:00.214Z,92.4
2022-08-19T21:20:00.184Z,92.4
2022-08-19T21:25:00.187Z,92.7
2022-08-19T21:30:00.207Z,92.7
2022-08-19T21:35:00.186Z,92.4
2022-08-19T21:40:00.322Z,92.7
2022-08-19T21:45:00.206Z,92.3
2022-08-19T21:50:00.185Z,92.4
2022-08-19T21:55:00.200Z,92.7
2022-08-19T22:00:00.197Z,93
2022-08-19T22:05:00.196Z,92.7
2022-08-19T22:10:00.189Z,92.3
2022-08-19T22:15:00.184Z,92.6
2022-08-19T22:20:00.186Z,92.7
2022-08-19T22:25:00.251Z,93
2022-08-19T22:30:00.234Z,93
2022-08-19T22:35:00.181Z,92.6
2022-08-19T22:40:00.367Z,92.6
2022-08-19T22:45:00.198Z,92.3
2022-08-19T22:50:00.191Z,92.3
2022-08-19T22:55:00.207Z,92.3
2022-08-19T23:00:01.055Z,92.3
2022-08-19T23:05:00.198Z,92.3
2022-08-19T23:10:00.223Z,92.3
2022-08-19T23:15:00.196Z,92.3
2022-08-19T23:20:00.241Z,92.3
2022-08-19T23:25:00.185Z,91.9
2022-08-19T23:30:00.255Z,91.9
2022-08-19T23:35:00.191Z,91.6
2022-08-19T23:40:00.308Z,91.6
2022-08-19T23:45:00.189Z,90.9
2022-08-19T23:50:00.186Z,90.9
2022-08-19T23:55:00.181Z,90.6
